Time;durP1;ratioP1;P1;durP2;ratioP2;P2;SDS_P1;SDS_P2;PMS_P1;PMS_P2;Temp;Humidity;BMP_temperature;BMP_pressure;BME280_temperature;BME280_humidity;BME280_pressure;Samples;Min_cycle;Max_cycle;Signal;HPM_P1;HPM_P2
2022/11/07 00:01:34;;;;;;;2.17;1.97;;;10.80;99.90;;;10.99;nan;100438.66;5028772;28;20640;-68
2022/11/07 00:04:01;;;;;;;1.27;1.27;;;10.70;99.90;;;10.86;nan;100434.38;5033015;28;20668;-68
2022/11/07 00:06:28;;;;;;;5.57;1.90;;;10.70;99.90;;;10.99;nan;100438.66;5036071;28;21022;-68
2022/11/07 00:08:57;;;;;;;0.97;0.77;;;10.70;99.90;;;11.05;nan;100440.81;5009417;28;20666;-69
2022/11/07 00:11:24;;;;;;;1.07;1.07;;;10.70;99.90;;;10.89;nan;100428.09;5024624;28;20670;-68
2022/11/07 00:13:51;;;;;;;1.27;1.27;;;10.70;99.90;;;10.87;nan;100435.19;5021051;28;20640;-70
2022/11/07 00:16:18;;;;;;;3.50;1.43;;;10.70;99.90;;;11.01;nan;100437.56;5016175;28;20640;-68
2022/11/07 00:18:45;;;;;;;1.73;1.20;;;10.70;99.90;;;11.05;nan;100438.19;5013863;28;20653;-68
2022/11/07 00:21:12;;;;;;;1.23;1.20;;;10.70;99.90;;;11.12;nan;100437.59;5022806;28;20637;-67
2022/11/07 00:23:40;;;;;;;1.83;1.73;;;10.80;99.90;;;10.91;nan;100445.31;5032473;28;21212;-68
2022/11/07 00:26:11;;;;;;;1.87;1.77;;;10.70;99.90;;;11.11;nan;100440.31;5030290;28;20667;-69
2022/11/07 00:28:41;;;;;;;3.77;1.67;;;10.80;99.90;;;11.09;nan;100440.47;5037644;28;20659;-67
2022/11/07 00:31:10;;;;;;;2.93;1.80;;;10.80;99.90;;;11.07;nan;100446.75;5022752;28;20629;-67
2022/11/07 00:33:37;;;;;;;1.10;1.10;;;10.80;99.90;;;11.17;nan;100455.53;5027029;28;20636;-67
2022/11/07 00:36:05;;;;;;;2.00;1.50;;;10.80;99.90;;;11.08;nan;100457.06;5031371;28;21106;-69
2022/11/07 00:38:31;;;;;;;1.13;1.13;;;10.80;99.90;;;11.15;nan;100454.81;5012752;28;21251;-68
2022/11/07 00:41:02;;;;;;;1.03;1.03;;;10.80;99.90;;;11.10;nan;100452.53;5023468;28;20641;-68
2022/11/07 00:43:30;;;;;;;1.13;0.60;;;10.80;99.90;;;11.08;nan;100449.22;5011419;28;20665;-67
2022/11/07 00:46:01;;;;;;;1.60;1.43;;;10.80;99.90;;;10.84;nan;100456.31;5013112;28;20629;-67
2022/11/07 00:48:29;;;;;;;0.70;0.70;;;10.80;99.90;;;10.93;nan;100455.63;5015699;28;20742;-69
2022/11/07 00:50:55;;;;;;;1.20;1.10;;;10.70;99.90;;;11.08;nan;100453.59;5008436;28;20621;-67
2022/11/07 00:53:23;;;;;;;1.37;1.37;;;10.80;99.90;;;11.15;nan;100454.81;5042503;28;20640;-68
2022/11/07 00:55:49;;;;;;;1.00;0.90;;;10.80;99.90;;;11.07;nan;100458.03;5042586;28;20633;-68
2022/11/07 00:58:16;;;;;;;0.90;0.90;;;10.80;99.90;;;11.17;nan;100473.81;5019417;28;20657;-67
2022/11/07 01:00:43;;;;;;;2.13;1.23;;;10.80;99.90;;;11.26;nan;100473.09;5042540;28;20635;-68
2022/11/07 01:06:02;;;;;;;2.37;1.90;;;10.90;99.90;;;11.22;nan;100482.13;5047094;28;20625;-67
2022/11/07 01:08:30;;;;;;;1.70;1.60;;;10.90;99.90;;;11.29;nan;100481.50;5035302;28;20665;-68
2022/11/07 01:10:58;;;;;;;0.70;0.70;;;10.90;99.90;;;11.38;nan;100482.59;5023172;28;21208;-69
2022/11/07 01:13:25;;;;;;;1.07;1.07;;;11.00;99.90;;;11.27;nan;100480.81;5017017;28;21200;-68
2022/11/07 01:15:52;;;;;;;1.83;1.60;;;11.00;99.90;;;11.11;nan;100488.16;5017609;28;20638;-68
2022/11/07 01:18:20;;;;;;;1.70;1.60;;;10.90;99.90;;;11.16;nan;100486.00;5031742;28;20668;-67
2022/11/07 01:20:48;;;;;;;1.23;0.87;;;10.90;99.90;;;11.20;nan;100490.06;5032625;28;20714;-68
2022/11/07 01:23:16;;;;;;;2.70;1.23;;;10.90;99.90;;;11.16;nan;100482.59;5033008;28;20726;-68
2022/11/07 01:25:44;;;;;;;1.17;1.17;;;10.90;99.90;;;11.33;nan;100490.78;5007110;28;20633;-67
2022/11/07 01:28:11;;;;;;;1.10;1.03;;;11.00;99.90;;;11.26;nan;100483.53;5031886;28;21060;-68
2022/11/07 01:30:42;;;;;;;0.80;0.80;;;10.90;99.90;;;11.24;nan;100485.44;5034135;28;20633;-68
2022/11/07 01:33:10;;;;;;;1.30;1.20;;;11.00;99.90;;;11.16;nan;100486.00;5035717;28;20643;-68
2022/11/07 01:35:38;;;;;;;2.30;1.30;;;10.90;99.90;;;11.27;nan;100479.97;5032930;28;20636;-68
2022/11/07 01:38:06;;;;;;;2.60;1.20;;;10.90;99.90;;;11.39;nan;100479.84;5035879;28;21025;-70
2022/11/07 01:41:19;;;;;;;1.23;1.23;;;11.00;99.90;;;11.37;nan;100484.38;5039776;28;20647;-66
2022/11/07 01:43:20;;;;;;;1.80;1.40;;;11.00;99.90;;;11.31;nan;100470.94;5025183;28;20661;-68
2022/11/07 01:45:47;;;;;;;1.60;1.50;;;11.00;99.90;;;11.31;nan;100482.22;5014186;28;21022;-67
2022/11/07 01:48:13;;;;;;;1.87;1.67;;;11.00;99.90;;;11.38;nan;100479.97;5043278;22;20680;-65
2022/11/07 01:50:41;;;;;;;1.00;1.00;;;11.00;99.90;;;11.50;nan;100484.25;5047737;28;20694;-66
2022/11/07 01:53:08;;;;;;;3.00;0.77;;;11.10;99.90;;;11.33;nan;100484.75;5043509;28;21225;-66
2022/11/07 01:55:35;;;;;;;1.60;1.50;;;11.10;99.90;;;11.29;nan;100484.13;5053982;28;20627;-65
2022/11/07 01:58:06;;;;;;;0.97;0.97;;;11.10;99.90;;;11.27;nan;100491.25;5047172;28;20676;-65
2022/11/07 02:00:34;;;;;;;1.33;1.23;;;11.00;99.90;;;11.31;nan;100486.63;5036272;28;20630;-67
2022/11/07 02:03:11;;;;;;;1.17;1.17;;;11.00;99.90;;;11.47;nan;100484.50;5052509;28;20664;-66
2022/11/07 02:05:50;;;;;;;2.60;1.30;;;11.10;99.90;;;11.42;nan;100492.69;5031063;28;20671;-66
2022/11/07 02:08:18;;;;;;;1.03;1.00;;;11.10;99.90;;;11.46;nan;100496.72;5048080;28;20647;-66
2022/11/07 02:10:45;;;;;;;4.33;1.27;;;11.10;99.90;;;11.43;nan;100485.69;5034654;28;20612;-66
2022/11/07 02:13:20;;;;;;;1.33;0.93;;;11.10;99.90;;;11.37;nan;100484.38;5035075;28;20654;-66
2022/11/07 02:15:47;;;;;;;1.63;1.30;;;11.10;99.90;;;11.56;nan;100481.19;5035759;28;20631;-66
2022/11/07 02:18:14;;;;;;;0.67;0.67;;;11.20;99.90;;;11.56;nan;100479.38;5061857;28;20674;-66
2022/11/07 02:20:42;;;;;;;1.03;0.93;;;11.20;99.90;;;11.35;nan;100486.25;5029948;28;20616;-66
2022/11/07 02:23:26;;;;;;;1.03;1.03;;;11.20;99.90;;;11.24;nan;100478.44;5034543;28;20672;-66
2022/11/07 02:25:53;;;;;;;0.70;0.70;;;11.10;99.90;;;11.25;nan;100471.41;5033368;28;21187;-66
2022/11/07 02:28:22;;;;;;;1.30;1.23;;;11.10;99.90;;;11.29;nan;100465.00;5049745;28;21268;-66
2022/11/07 02:30:49;;;;;;;2.73;1.10;;;11.10;99.90;;;11.36;nan;100463.59;5034952;28;20621;-65
2022/11/07 02:33:22;;;;;;;0.73;0.73;;;11.10;99.90;;;11.31;nan;100455.28;5035554;28;20611;-65
2022/11/07 02:35:51;;;;;;;1.33;1.23;;;11.10;99.90;;;11.29;nan;100467.63;5034548;28;20636;-65
2022/11/07 02:38:26;;;;;;;1.60;1.37;;;11.00;99.90;;;11.34;nan;100465.50;5051743;28;20644;-66
2022/11/07 02:41:24;;;;;;;0.70;0.70;;;11.10;99.90;;;11.33;nan;100463.84;5041397;28;21002;-66
2022/11/07 02:43:56;;;;;;;0.97;0.93;;;11.10;99.90;;;11.36;nan;100468.81;5053104;28;20663;-66
2022/11/07 02:46:24;;;;;;;1.40;1.40;;;11.00;99.90;;;11.24;nan;100456.72;5034245;28;21187;-66
2022/11/07 02:48:56;;;;;;;8.00;1.43;;;11.00;99.90;;;11.17;nan;100461.59;5034637;28;20671;-66
2022/11/07 02:51:23;;;;;;;1.10;1.10;;;11.00;99.90;;;11.22;nan;100462.03;5044963;28;20646;-66
2022/11/07 02:53:51;;;;;;;2.70;1.07;;;11.00;99.90;;;11.29;nan;100462.41;5034913;28;20636;-66
2022/11/07 02:56:20;;;;;;;2.00;1.27;;;11.00;99.90;;;11.25;nan;100467.03;5034858;28;20640;-66
2022/11/07 02:58:47;;;;;;;1.30;1.20;;;11.00;99.90;;;11.28;nan;100468.59;5051705;28;20663;-66
2022/11/07 03:01:14;;;;;;;1.93;1.00;;;11.00;99.90;;;11.22;nan;100466.47;5052504;28;20632;-65
2022/11/07 03:03:45;;;;;;;0.80;0.80;;;11.00;99.90;;;11.37;nan;100471.31;5050992;28;21038;-65
2022/11/07 03:06:19;;;;;;;1.37;1.20;;;11.00;99.90;;;11.44;nan;100466.44;5033039;28;20692;-64
2022/11/07 03:08:46;;;;;;;1.40;1.30;;;11.10;99.90;;;11.54;nan;100472.63;5048328;28;20664;-65
2022/11/07 03:11:18;;;;;;;1.03;1.00;;;11.10;99.90;;;11.55;nan;100466.44;5032091;28;20642;-66
2022/11/07 03:13:47;;;;;;;2.70;1.23;;;11.10;99.90;;;11.53;nan;100470.94;5031680;28;20654;-66
2022/11/07 03:16:15;;;;;;;1.00;1.00;;;11.20;99.90;;;11.47;nan;100474.88;5032571;28;20652;-66
2022/11/07 03:18:43;;;;;;;1.00;1.00;;;11.20;99.90;;;11.54;nan;100472.63;5046209;28;20725;-65
2022/11/07 03:21:10;;;;;;;1.03;1.00;;;11.10;99.90;;;11.50;nan;100476.41;5050727;28;20628;-66
2022/11/07 03:23:37;;;;;;;1.10;1.00;;;11.20;99.90;;;11.68;nan;100468.00;5050575;28;21245;-65
2022/11/07 03:26:04;;;;;;;1.20;1.20;;;11.30;99.90;;;11.70;nan;100470.50;5051189;28;20608;-66
2022/11/07 03:28:32;;;;;;;1.20;1.10;;;11.30;99.90;;;11.44;nan;100469.88;5046606;28;21048;-66
2022/11/07 03:31:01;;;;;;;1.50;1.40;;;11.20;99.90;;;11.58;nan;100471.44;5027969;28;21186;-66
2022/11/07 03:33:29;;;;;;;4.20;1.40;;;11.20;99.90;;;11.54;nan;100483.06;5050150;28;20634;-66
2022/11/07 03:35:56;;;;;;;0.90;0.83;;;11.20;99.90;;;11.56;nan;100478.56;5051967;28;20644;-66
2022/11/07 03:38:23;;;;;;;1.30;1.13;;;11.20;99.90;;;11.60;nan;100486.03;5028479;28;20667;-65
2022/11/07 03:40:50;;;;;;;0.87;0.87;;;11.30;99.90;;;11.66;nan;100482.09;5048107;28;21215;-66
2022/11/07 03:43:17;;;;;;;0.77;0.77;;;11.20;99.90;;;11.72;nan;100488.66;5040038;28;20697;-65
2022/11/07 03:45:44;;;;;;;2.40;1.40;;;11.30;99.90;;;11.53;nan;100489.25;5050906;28;20636;-65
2022/11/07 03:48:11;;;;;;;1.27;1.00;;;11.30;99.90;;;11.42;nan;100486.63;5049785;28;20666;-64
2022/11/07 03:50:38;;;;;;;2.50;1.40;;;11.20;99.90;;;11.43;nan;100483.06;5032653;28;20635;-66
2022/11/07 03:53:05;;;;;;;2.40;1.20;;;11.20;99.90;;;11.53;nan;100491.84;5049928;28;20662;-67
2022/11/07 03:55:31;;;;;;;1.13;1.13;;;11.20;99.90;;;11.59;nan;100501.81;5034090;28;20977;-66
2022/11/07 03:57:58;;;;;;;1.23;1.23;;;11.20;99.90;;;11.65;nan;100498.72;5032480;28;20656;-65
2022/11/07 04:00:25;;;;;;;1.40;1.30;;;11.30;99.90;;;11.55;nan;100505.63;5034027;28;20634;-66
2022/11/07 04:02:52;;;;;;;1.10;1.00;;;11.30;99.90;;;11.46;nan;100506.34;5034459;28;20647;-66
2022/11/07 04:05:19;;;;;;;3.20;1.40;;;11.20;99.90;;;11.60;nan;100506.13;5049382;28;20667;-66
2022/11/07 04:07:46;;;;;;;0.50;0.50;;;11.20;99.90;;;11.72;nan;100512.19;5030551;28;20659;-65
2022/11/07 04:10:13;;;;;;;1.20;1.10;;;11.30;99.90;;;11.58;nan;100513.25;5029495;28;20640;-66
2022/11/07 04:18:21;;;;;;;1.53;1.20;;;11.40;99.90;;;11.68;nan;100517.66;5012943;28;20727;-66
2022/11/07 04:20:48;;;;;;;0.90;0.90;;;11.40;99.90;;;11.78;nan;100533.44;5030212;28;20636;-66
2022/11/07 04:23:15;;;;;;;0.77;0.77;;;11.40;99.90;;;11.74;nan;100531.19;5032826;28;20635;-67
2022/11/07 04:28:28;;;;;;;1.57;0.87;;;11.50;99.90;;;11.83;nan;100520.84;5050604;28;21250;-66
2022/11/07 04:30:55;;;;;;;0.73;0.73;;;11.50;99.90;;;11.84;nan;100519.88;5050747;28;21239;-66
2022/11/07 04:33:22;;;;;;;1.63;0.87;;;11.50;99.90;;;11.81;nan;100527.16;5033128;28;20642;-66
2022/11/07 04:35:51;;;;;;;2.27;1.53;;;11.60;99.90;;;11.89;nan;100528.22;5049372;28;20631;-67
2022/11/07 04:38:21;;;;;;;1.00;1.00;;;11.60;99.90;;;11.87;nan;100529.28;5050501;28;20659;-66
2022/11/07 04:40:56;;;;;;;1.20;1.20;;;11.60;99.90;;;11.94;nan;100528.69;5049518;28;20628;-66
2022/11/07 04:43:27;;;;;;;1.07;0.97;;;11.60;99.90;;;11.89;nan;100527.38;5050750;28;20926;-67
2022/11/07 04:45:55;;;;;;;1.30;1.30;;;11.60;99.90;;;11.97;nan;100525.81;5016979;28;20693;-66
2022/11/07 04:48:25;;;;;;;2.20;1.10;;;11.70;99.90;;;11.97;nan;100523.19;5050742;28;20660;-66
2022/11/07 04:50:56;;;;;;;0.60;0.50;;;11.70;99.90;;;11.90;nan;100511.56;5033376;28;21004;-66
2022/11/07 04:53:26;;;;;;;0.63;0.63;;;11.70;99.90;;;12.02;nan;100515.81;5032735;28;20644;-66
2022/11/07 04:55:55;;;;;;;0.77;0.77;;;11.70;99.90;;;12.01;nan;100521.19;5049964;28;20627;-66
2022/11/07 04:58:28;;;;;;;0.73;0.70;;;11.80;99.90;;;12.08;nan;100515.34;5049281;28;20737;-66
2022/11/07 05:00:57;;;;;;;6.17;0.77;;;11.80;99.90;;;11.88;nan;100516.09;5049968;28;20631;-67
2022/11/07 05:03:27;;;;;;;0.97;0.97;;;11.70;99.90;;;12.04;nan;100519.16;5032253;28;20632;-66
2022/11/07 05:05:54;;;;;;;0.80;0.80;;;11.70;99.90;;;12.05;nan;100510.34;5031976;28;21024;-66
2022/11/07 05:08:21;;;;;;;0.83;0.83;;;11.80;99.90;;;12.09;nan;100522.25;5014766;28;20659;-65
2022/11/07 05:10:48;;;;;;;27.60;2.63;;;11.80;99.90;;;12.11;nan;100517.72;5057959;28;20642;-66
2022/11/07 05:13:15;;;;;;;0.50;0.50;;;11.80;99.90;;;12.08;nan;100519.72;5030941;28;20618;-67
2022/11/07 05:15:42;;;;;;;1.03;1.03;;;11.80;99.90;;;12.09;nan;100526.63;5046507;28;20642;-65
2022/11/07 05:18:10;;;;;;;1.50;1.40;;;11.80;99.90;;;12.06;nan;100522.47;5031094;28;20729;-65
2022/11/07 05:20:38;;;;;;;0.83;0.83;;;11.80;99.90;;;11.96;nan;100521.56;5030663;28;20728;-65
2022/11/07 05:23:11;;;;;;;1.13;0.67;;;11.70;99.90;;;11.98;nan;100519.63;5031505;28;20674;-66
2022/11/07 05:25:50;;;;;;;1.40;0.87;;;11.70;99.90;;;11.86;nan;100509.31;5049420;28;20701;-66
2022/11/07 05:28:27;;;;;;;1.00;0.80;;;11.60;99.90;;;11.90;nan;100514.19;5048691;28;20670;-64
2022/11/07 05:31:04;;;;;;;1.13;0.80;;;11.60;99.90;;;11.94;nan;100513.00;5033018;28;20775;-66
2022/11/07 05:33:31;;;;;;;0.70;0.47;;;11.60;99.90;;;11.95;nan;100519.03;5027594;28;20639;-66
2022/11/07 05:36:18;;;;;;;0.60;0.60;;;11.70;99.90;;;11.84;nan;100519.88;5017738;28;20643;-66
2022/11/07 05:38:48;;;;;;;3.63;0.57;;;11.70;99.90;;;11.97;nan;100523.19;5035301;28;20648;-66
2022/11/07 05:41:17;;;;;;;0.63;0.63;;;11.70;99.90;;;11.91;nan;100518.47;5033966;28;20696;-65
2022/11/07 05:43:45;;;;;;;1.00;0.87;;;11.70;99.90;;;11.95;nan;100517.25;5019942;28;20631;-66
2022/11/07 05:46:13;;;;;;;0.70;0.63;;;11.70;99.90;;;12.09;nan;100529.25;5052906;28;20689;-65
2022/11/07 05:48:40;;;;;;;1.00;0.93;;;11.80;99.90;;;12.14;nan;100529.69;5036145;28;20730;-65
2022/11/07 05:51:07;;;;;;;0.67;0.67;;;11.80;99.90;;;12.10;nan;100520.44;5052202;28;20642;-66
2022/11/07 05:53:34;;;;;;;0.97;0.97;;;11.80;99.90;;;12.19;nan;100528.38;5065294;28;20623;-66
2022/11/07 05:56:02;;;;;;;0.90;0.90;;;11.90;99.90;;;12.18;nan;100537.19;5052174;28;20639;-66
2022/11/07 05:58:29;;;;;;;1.93;0.90;;;11.90;99.90;;;12.13;nan;100531.50;5035169;28;20662;-66
2022/11/07 06:01:04;;;;;;;0.40;0.40;;;11.90;99.90;;;12.16;nan;100528.63;5034471;28;20628;-67
2022/11/07 06:03:32;;;;;;;0.40;0.40;;;11.90;99.90;;;12.21;nan;100525.63;5019289;28;20627;-66
2022/11/07 06:05:59;;;;;;;1.03;1.03;;;11.90;99.90;;;12.29;nan;100526.69;5032447;28;20663;-65
2022/11/07 06:08:26;;;;;;;1.00;1.00;;;12.00;99.90;;;12.45;nan;100528.91;5018718;28;20654;-66
2022/11/07 06:10:53;;;;;;;0.70;0.70;;;12.10;99.90;;;12.31;nan;100532.63;5034257;28;20642;-66
2022/11/07 06:13:19;;;;;;;1.43;1.33;;;12.00;99.90;;;12.39;nan;100529.41;5033429;28;20673;-67
2022/11/07 06:15:47;;;;;;;0.53;0.53;;;12.10;99.90;;;12.40;nan;100536.28;5051280;28;20632;-67
2022/11/07 06:18:17;;;;;;;1.10;1.00;;;12.10;99.90;;;12.61;nan;100529.31;5035612;28;20670;-66
2022/11/07 06:20:45;;;;;;;4.03;1.07;;;12.10;99.90;;;12.66;nan;100529.78;5010026;28;20648;-67
2022/11/07 06:23:12;;;;;;;1.07;1.07;;;12.20;99.90;;;12.59;nan;100527.75;5034349;28;21225;-66
2022/11/07 06:25:40;;;;;;;2.07;1.20;;;12.20;99.90;;;12.59;nan;100530.38;5048005;28;20679;-66
2022/11/07 06:28:12;;;;;;;1.03;0.90;;;12.20;99.90;;;12.67;nan;100523.56;5034841;28;20704;-66
2022/11/07 06:30:40;;;;;;;0.97;0.97;;;12.30;99.90;;;12.56;nan;100525.41;5034000;28;20632;-66
2022/11/07 06:33:13;;;;;;;0.80;0.80;;;12.20;99.90;;;12.40;nan;100531.88;5018637;28;20627;-67
2022/11/07 06:35:41;;;;;;;2.70;1.20;;;12.20;99.90;;;12.45;nan;100529.75;5033712;28;20636;-66
2022/11/07 06:38:10;;;;;;;0.70;0.70;;;12.20;99.90;;;12.40;nan;100531.06;5032738;28;20663;-66
2022/11/07 06:40:38;;;;;;;1.27;0.90;;;12.10;99.90;;;12.28;nan;100530.28;5024322;28;20625;-66
2022/11/07 06:43:14;;;;;;;2.60;0.77;;;12.10;99.90;;;12.56;nan;100528.03;5050356;28;21195;-66
2022/11/07 06:45:43;;;;;;;1.17;1.10;;;12.20;99.90;;;12.51;nan;100538.03;5031149;28;21234;-66
2022/11/07 06:48:11;;;;;;;1.30;1.20;;;12.10;99.90;;;12.47;nan;100542.69;5017029;28;21040;-65
2022/11/07 06:50:39;;;;;;;1.40;1.30;;;12.10;99.90;;;12.46;nan;100541.00;5034355;28;22154;-67
2022/11/07 06:53:10;;;;;;;3.33;1.07;;;12.10;99.90;;;12.40;nan;100538.91;5033280;28;21013;-66
2022/11/07 06:55:38;;;;;;;1.60;1.50;;;12.10;99.90;;;12.49;nan;100548.63;5030023;28;20646;-66
2022/11/07 06:58:05;;;;;;;6.43;1.53;;;12.10;99.90;;;12.57;nan;100550.63;5031702;28;21038;-66
2022/11/07 07:00:34;;;;;;;0.80;0.80;;;12.20;99.90;;;12.55;nan;100555.16;5050113;28;20666;-66
2022/11/07 07:03:02;;;;;;;2.40;1.50;;;12.20;99.90;;;12.57;nan;100545.38;5034501;28;20634;-66
2022/11/07 07:05:29;;;;;;;1.30;0.97;;;12.20;99.90;;;12.64;nan;100550.00;5050023;28;21036;-65
2022/11/07 07:07:55;;;;;;;1.70;1.13;;;12.20;99.90;;;12.76;nan;100541.13;5035774;28;20654;-66
2022/11/07 07:10:24;;;;;;;1.20;1.20;;;12.30;99.90;;;12.81;nan;100553.84;5061430;28;20669;-65
2022/11/07 07:12:53;;;;;;;3.13;1.60;;;12.40;99.90;;;12.89;nan;100559.28;5043566;28;20629;-64
2022/11/07 07:15:20;;;;;;;2.60;1.40;;;12.40;99.90;;;12.95;nan;100556.16;5048708;28;20985;-65
2022/11/07 07:17:48;;;;;;;1.43;1.17;;;12.50;99.90;;;12.98;nan;100558.53;5028179;28;20657;-65
2022/11/07 07:20:15;;;;;;;2.40;1.33;;;12.50;99.90;;;13.19;nan;100562.00;5047717;28;20650;-66
2022/11/07 07:22:44;;;;;;;1.20;1.20;;;12.60;99.90;;;13.52;nan;100568.81;5032415;28;20640;-66
2022/11/07 07:25:11;;;;;;;1.63;1.40;;;12.80;99.90;;;13.77;nan;100569.22;5050175;28;21036;-65
2022/11/07 07:27:38;;;;;;;1.20;1.00;;;13.00;99.90;;;14.01;nan;100574.94;5015762;28;20670;-65
2022/11/07 07:30:06;;;;;;;3.60;1.40;;;13.20;99.90;;;13.90;nan;100582.09;5041607;28;21252;-66
2022/11/07 07:32:34;;;;;;;3.53;1.57;;;13.40;99.90;;;14.45;nan;100576.34;5048459;28;20689;-65
2022/11/07 07:35:01;;;;;;;1.90;1.30;;;13.50;99.90;;;14.70;nan;100590.72;5050436;28;20644;-65
2022/11/07 07:37:29;;;;;;;3.67;1.20;;;13.70;99.90;;;14.86;nan;100588.41;5046098;28;20648;-65
2022/11/07 07:39:56;;;;;;;2.70;1.20;;;13.90;99.90;;;14.81;nan;100590.59;5050327;28;20624;-66
2022/11/07 07:42:23;;;;;;;1.80;1.40;;;14.00;99.90;;;14.61;nan;100592.38;5049062;28;20643;-66
2022/11/07 07:44:50;;;;;;;1.37;1.00;;;14.00;99.90;;;14.28;nan;100594.50;5032477;28;20660;-66
2022/11/07 07:47:16;;;;;;;0.67;0.67;;;13.90;99.90;;;13.89;nan;100589.13;5015245;28;20639;-66
2022/11/07 07:49:43;;;;;;;1.30;1.20;;;13.70;99.90;;;13.98;nan;100588.34;5063851;22;21062;-64
2022/11/07 07:52:10;;;;;;;1.37;1.27;;;13.70;99.90;;;14.44;nan;100581.72;5042293;28;20628;-64
2022/11/07 07:54:37;;;;;;;1.10;1.00;;;13.80;99.90;;;14.37;nan;100578.81;5032779;28;20618;-64
2022/11/07 07:57:04;;;;;;;1.10;1.10;;;13.90;99.90;;;14.47;nan;100584.91;5049574;28;20624;-64
2022/11/07 07:59:31;;;;;;;2.40;1.40;;;13.90;99.90;;;14.38;nan;100603.25;5037133;28;20665;-65
2022/11/07 08:01:58;;;;;;;2.90;1.10;;;13.90;99.90;;;14.14;nan;100594.91;5029679;28;21196;-64
2022/11/07 08:04:25;;;;;;;2.87;1.40;;;13.80;99.90;;;14.06;nan;100586.84;5028781;28;21001;-64
2022/11/07 08:06:52;;;;;;;2.37;1.23;;;13.60;99.90;;;14.02;nan;100592.38;5029520;28;20636;-65
2022/11/07 08:09:19;;;;;;;5.57;1.60;;;13.60;99.90;;;14.10;nan;100596.94;5028766;28;21058;-63
2022/11/07 08:11:46;;;;;;;2.20;1.40;;;13.50;99.90;;;13.85;nan;100593.00;5038622;28;20635;-64
2022/11/07 08:14:13;;;;;;;1.00;0.90;;;13.50;99.90;;;13.73;nan;100591.44;5044208;28;20654;-64
2022/11/07 08:16:40;;;;;;;3.90;1.80;;;13.40;99.90;;;13.76;nan;100588.53;5050086;28;20639;-64
2022/11/07 08:19:06;;;;;;;4.10;1.40;;;13.40;99.90;;;13.72;nan;100592.38;5043505;28;20734;-65
2022/11/07 08:21:33;;;;;;;3.13;0.90;;;13.30;99.90;;;13.63;nan;100590.53;5040452;28;20654;-65
2022/11/07 08:24:02;;;;;;;1.00;1.00;;;13.30;99.90;;;13.62;nan;100586.25;5029184;28;20636;-65
2022/11/07 08:26:30;;;;;;;1.33;1.03;;;13.20;99.90;;;13.64;nan;100588.75;5033063;28;20665;-64
2022/11/07 08:28:57;;;;;;;1.57;1.40;;;13.20;99.90;;;13.65;nan;100593.84;5030461;28;20671;-65
2022/11/07 08:31:24;;;;;;;6.50;1.20;;;13.20;99.90;;;13.66;nan;100597.31;5028671;28;20983;-65
2022/11/07 08:33:50;;;;;;;2.23;1.30;;;13.20;99.90;;;13.50;nan;100602.22;5029530;28;20629;-65
2022/11/07 08:36:17;;;;;;;1.73;1.30;;;13.20;99.90;;;13.74;nan;100610.59;5023915;28;20993;-65
2022/11/07 08:38:44;;;;;;;1.43;1.30;;;13.20;99.90;;;13.91;nan;100608.19;5028053;28;20657;-65
2022/11/07 08:41:11;;;;;;;1.50;1.40;;;13.30;99.90;;;13.95;nan;100620.06;5029447;28;20761;-65
2022/11/07 08:43:38;;;;;;;2.43;1.20;;;13.40;99.90;;;14.07;nan;100620.00;5030649;28;20694;-65
2022/11/07 08:46:06;;;;;;;1.77;1.10;;;13.50;99.90;;;13.73;nan;100609.78;5036277;28;20660;-65
2022/11/07 08:48:32;;;;;;;1.40;0.93;;;13.40;99.90;;;13.90;nan;100622.28;5029624;28;20659;-66
2022/11/07 08:51:01;;;;;;;1.50;1.40;;;13.40;99.90;;;14.11;nan;100624.00;5031628;28;20643;-65
2022/11/07 08:53:29;;;;;;;6.23;1.00;;;13.50;99.90;;;13.99;nan;100613.59;5025584;28;20656;-65
2022/11/07 08:56:06;;;;;;;0.80;0.80;;;13.50;99.90;;;14.10;nan;100617.13;5021672;28;20651;-65
2022/11/07 08:58:33;;;;;;;1.73;0.90;;;13.60;99.90;;;14.26;nan;100622.69;5029412;28;21049;-64
2022/11/07 09:01:04;;;;;;;2.53;0.97;;;13.60;99.90;;;14.34;nan;100625.50;5049267;28;20628;-65
2022/11/07 09:03:35;;;;;;;1.57;1.17;;;13.70;99.90;;;14.25;nan;100626.25;5029944;28;20686;-66
2022/11/07 09:06:12;;;;;;;1.27;0.80;;;13.70;99.90;;;14.22;nan;100627.38;5029604;28;20666;-66
2022/11/07 09:08:40;;;;;;;1.07;0.83;;;13.70;99.90;;;14.19;nan;100627.63;5031756;28;20656;-66
2022/11/07 09:11:07;;;;;;;1.63;1.57;;;13.70;99.90;;;14.14;nan;100626.38;5032897;28;21071;-65
2022/11/07 09:13:35;;;;;;;1.97;1.30;;;13.70;99.90;;;14.16;nan;100632.31;5045407;28;20710;-66
2022/11/07 09:16:04;;;;;;;4.60;1.10;;;13.70;99.90;;;14.11;nan;100631.88;5034549;28;20637;-66
2022/11/07 09:18:32;;;;;;;4.70;1.07;;;13.70;99.90;;;14.00;nan;100627.56;5037087;28;20655;-67
2022/11/07 09:20:59;;;;;;;4.97;1.40;;;13.60;99.90;;;14.10;nan;100628.41;5035745;28;20632;-66
2022/11/07 09:23:26;;;;;;;5.60;1.43;;;13.60;99.90;;;14.19;nan;100622.38;5044639;28;20714;-66
2022/11/07 09:25:53;;;;;;;3.63;1.07;;;13.70;99.90;;;14.08;nan;100630.34;5039762;28;20704;-65
2022/11/07 09:28:20;;;;;;;1.03;1.03;;;13.70;99.90;;;13.88;nan;100629.44;5032721;28;20690;-67
2022/11/07 09:30:53;;;;;;;5.13;1.30;;;13.60;99.90;;;13.70;nan;100636.25;5033250;28;20693;-67
2022/11/07 09:33:20;;;;;;;2.10;0.80;;;13.50;99.90;;;13.87;nan;100640.06;5044134;28;20636;-67
2022/11/07 09:35:48;;;;;;;0.90;0.70;;;13.50;99.90;;;13.70;nan;100641.50;5033219;28;20629;-67
2022/11/07 09:38:15;;;;;;;1.10;1.00;;;13.40;99.90;;;13.83;nan;100644.75;5014791;28;20653;-66
2022/11/07 09:41:05;;;;;;;1.13;1.00;;;13.40;99.90;;;13.82;nan;100637.81;5038370;28;20636;-67
2022/11/07 09:43:55;;;;;;;1.33;0.80;;;13.40;99.90;;;13.67;nan;100633.88;5015245;28;21020;-66
2022/11/07 09:46:44;;;;;;;0.73;0.60;;;13.40;99.90;;;13.73;nan;100640.41;5032387;28;21046;-66
2022/11/07 09:49:19;;;;;;;2.30;1.30;;;13.50;99.90;;;13.71;nan;100635.31;5029540;28;20665;-66
2022/11/07 09:51:57;;;;;;;0.40;0.40;;;13.40;99.90;;;13.70;nan;100635.41;5007428;28;21020;-67
2022/11/07 09:54:28;;;;;;;2.80;1.10;;;13.40;99.90;;;13.81;nan;100641.44;5015535;28;20631;-66
2022/11/07 09:56:58;;;;;;;1.07;1.00;;;13.40;99.90;;;13.66;nan;100629.63;5022722;28;20701;-65
2022/11/07 09:59:35;;;;;;;1.57;1.23;;;13.40;99.90;;;13.87;nan;100633.03;5014382;28;21096;-66
2022/11/07 10:02:12;;;;;;;3.23;1.30;;;13.40;99.90;;;14.05;nan;100637.66;5027633;28;20643;-66
2022/11/07 10:04:39;;;;;;;1.10;0.90;;;13.50;99.90;;;14.12;nan;100636.19;5035334;28;20700;-66
2022/11/07 10:07:45;;;;;;;1.33;1.20;;;13.60;99.90;;;14.21;nan;100637.97;5041628;28;20791;-66
2022/11/07 10:10:43;;;;;;;0.90;0.90;;;13.70;99.90;;;14.38;nan;100645.25;5015403;28;20645;-66
2022/11/07 10:13:16;;;;;;;2.20;1.20;;;13.80;99.90;;;14.63;nan;100645.59;5017200;28;21067;-66
2022/11/07 10:16:05;;;;;;;4.93;1.40;;;14.00;99.90;;;15.14;nan;100641.91;5031780;28;20621;-66
2022/11/07 10:19:11;;;;;;;2.90;1.13;;;14.20;99.90;;;15.35;nan;100650.47;5013829;28;20672;-66
2022/11/07 10:22:11;;;;;;;2.10;1.40;;;14.50;99.90;;;15.15;nan;100654.91;5015140;28;20637;-66
2022/11/07 10:24:46;;;;;;;1.10;0.90;;;14.60;99.90;;;15.28;nan;100652.81;5032197;28;20702;-66
2022/11/07 10:27:13;;;;;;;1.03;0.70;;;14.70;99.90;;;15.51;nan;100667.34;5026403;28;20664;-66
2022/11/07 10:29:51;;;;;;;0.80;0.80;;;14.80;99.90;;;15.89;nan;100670.84;5031261;28;20729;-66
2022/11/07 10:32:25;;;;;;;1.27;1.13;;;15.00;99.90;;;16.08;nan;100660.25;5045265;28;20692;-63
2022/11/07 10:35:13;;;;;;;0.90;0.90;;;15.20;99.90;;;15.75;nan;100663.41;5030772;28;21070;-66
2022/11/07 10:37:39;;;;;;;2.40;1.10;;;15.20;99.90;;;15.67;nan;100658.88;5010583;28;20693;-66
2022/11/07 10:40:18;;;;;;;3.17;0.80;;;15.10;99.90;;;15.62;nan;100661.09;5031124;28;20652;-66
2022/11/07 10:42:47;;;;;;;0.90;0.80;;;15.10;99.90;;;15.53;nan;100660.16;5010577;28;20664;-65
2022/11/07 10:45:16;;;;;;;3.27;1.17;;;15.10;99.90;;;15.65;nan;100655.56;5018443;28;20639;-66
2022/11/07 10:47:56;;;;;;;0.83;0.60;;;15.10;99.90;;;15.39;nan;100657.94;5033910;28;20636;-66